Aérodrome :
LOGIN :

S'inscrire | Disclaimer

   EN    FR    IT 

 










Légende :    VFR   VFR Marginal   IFR   IFR Intensif   IFR Très Intensif
Visi : 
Plafond : 
>= 8 km
>= 3000ft
5 à 8 km
1000 à 3000 ft
1500m à 5 km
500 à 1000 ft
800 à 1500m
200 à 500 ft
< 800m
< 200 ft
Symboles :   Orages  Brouillard  Fortes neiges  Fortes précipitations  Vent > 20 kt
SIGMETs :   Divers  Orages  Givrage  Turbulence  Onde Orograph.  Cendres Volcan.






- Altitude de l'aérodrome : 935 ft


EBFS - Florennes

DERNIER METAR :
  • 090955Z 20011KT 9999 SCT003 BKN005 BKN007 00/00 Q1004 RESN YLO YLO

METARs EXPIRÉS :
  • 090945Z 20011KT 9999 -SN SCT003 BKN005 BKN007 00/00 Q1004 YLO YLO
  • 090933Z 20012KT 4000 -SN SCT003 BKN005 00/00 Q1004 YLO YLO TEMPO AMB
  • 090916Z 20011KT 2000 SN BKN003 BKN005 00/00 Q1004 YLO YLO TEMPO AMB
  • 090855Z 21010KT 1500 SN FEW004 BKN005 BKN007 00/00 Q1004 AMB YLO TEMPO AMB
  • 090844Z 20011KT 1500 SN FEW004 BKN006 01/00 Q1004 AMB YLO TEMPO AMB
  • 090825Z 21011KT 3000 -SN BKN006 01/00 Q1004 YLO YLO TEMPO AMB
  • 090817Z 21011KT 3000 -SN BKN006 01/00 Q1004 YLO YLO TEMPO AMB
  • 090755Z 21012KT 9999 BKN006 01/00 Q1004 YLO YLO
  • 090744Z 21012KT 9999 -RASN BKN006 01/00 Q1004 YLO YLO
  • 090725Z 21008KT 9999 SCT006 BKN008 01/00 Q1003 YLO YLO

TAF TAF EBFS
Valide du 09 à 10h jusqu'au 09 à 19h UTC


090841Z 0910/0919 21010KT 3000 -RASN BKN004 OVC006
TEMPO 0910/0913 1500 SN BKN002 OVC004
TEMPO 0910/0916 21012G22KT
BECMG 0913/0915 9999 NSW SCT008 BKN010



MET'MAP, la Météo Aéronautique d'un coup d'oeil ! - Copyright ORBIFLY Décembre 2007 - Disclaimer

ORBIFLY MET'MAP TEAM :

Programmation & Développement : Alexandra Zaïnal
Sur une idée originale de : Baudouin d'Aumeries
Assistance à la programmation : Marc-Olivier Méhu
Soutien technique & logistique : Manuel Goepfert

Contact : metmap@orbifly.com




SOURCES & CREDITS :

   NOAA